sensor_id;sensor_type;location;lat;lon;timestamp;P1;durP1;ratioP1;P2;durP2;ratioP2
43801;SDS011;29429;51.074;13.764;2023-07-02T00:00:12;2.70;;;1.70;;
43801;SDS011;29429;51.074;13.764;2023-07-02T00:02:40;4.15;;;1.70;;
43801;SDS011;29429;51.074;13.764;2023-07-02T00:05:07;4.03;;;1.77;;
43801;SDS011;29429;51.074;13.764;2023-07-02T00:07:35;2.85;;;1.60;;
43801;SDS011;29429;51.074;13.764;2023-07-02T00:10:04;2.17;;;1.67;;
43801;SDS011;29429;51.074;13.764;2023-07-02T00:12:32;4.07;;;1.42;;
43801;SDS011;29429;51.074;13.764;2023-07-02T00:15:00;3.00;;;1.58;;
43801;SDS011;29429;51.074;13.764;2023-07-02T00:17:27;1.90;;;1.50;;
43801;SDS011;29429;51.074;13.764;2023-07-02T00:19:55;3.47;;;1.40;;
43801;SDS011;29429;51.074;13.764;2023-07-02T00:22:23;2.70;;;1.38;;
43801;SDS011;29429;51.074;13.764;2023-07-02T00:24:50;1.73;;;1.33;;
43801;SDS011;29429;51.074;13.764;2023-07-02T00:27:22;2.50;;;1.30;;
43801;SDS011;29429;51.074;13.764;2023-07-02T00:29:49;1.92;;;1.38;;
43801;SDS011;29429;51.074;13.764;2023-07-02T00:32:16;2.25;;;1.30;;
43801;SDS011;29429;51.074;13.764;2023-07-02T00:34:44;1.50;;;1.25;;
43801;SDS011;29429;51.074;13.764;2023-07-02T00:37:11;1.67;;;1.33;;
43801;SDS011;29429;51.074;13.764;2023-07-02T00:39:38;2.47;;;1.38;;
43801;SDS011;29429;51.074;13.764;2023-07-02T00:42:06;1.13;;;1.00;;
43801;SDS011;29429;51.074;13.764;2023-07-02T00:44:34;2.30;;;1.33;;
43801;SDS011;29429;51.074;13.764;2023-07-02T00:47:10;2.42;;;1.20;;
43801;SDS011;29429;51.074;13.764;2023-07-02T00:49:39;2.03;;;1.30;;
43801;SDS011;29429;51.074;13.764;2023-07-02T00:52:06;1.77;;;1.40;;
43801;SDS011;29429;51.074;13.764;2023-07-02T00:54:34;2.45;;;1.40;;
43801;SDS011;29429;51.074;13.764;2023-07-02T00:57:02;2.17;;;1.60;;
43801;SDS011;29429;51.074;13.764;2023-07-02T00:59:32;1.38;;;1.10;;
43801;SDS011;29429;51.074;13.764;2023-07-02T01:02:02;2.05;;;1.38;;
43801;SDS011;29429;51.074;13.764;2023-07-02T01:04:31;1.67;;;1.35;;
43801;SDS011;29429;51.074;13.764;2023-07-02T01:06:59;1.60;;;1.00;;
43801;SDS011;29429;51.074;13.764;2023-07-02T01:09:27;3.22;;;1.23;;
43801;SDS011;29429;51.074;13.764;2023-07-02T01:12:04;1.50;;;1.30;;
43801;SDS011;29429;51.074;13.764;2023-07-02T01:14:36;1.45;;;1.10;;
43801;SDS011;29429;51.074;13.764;2023-07-02T01:17:06;2.58;;;1.70;;
43801;SDS011;29429;51.074;13.764;2023-07-02T01:22:21;2.15;;;1.15;;
43801;SDS011;29429;51.074;13.764;2023-07-02T01:24:50;1.45;;;0.93;;
43801;SDS011;29429;51.074;13.764;2023-07-02T01:27:19;1.27;;;1.17;;
43801;SDS011;29429;51.074;13.764;2023-07-02T01:29:51;1.33;;;1.13;;
43801;SDS011;29429;51.074;13.764;2023-07-02T01:32:19;1.50;;;1.10;;
43801;SDS011;29429;51.074;13.764;2023-07-02T01:34:49;1.83;;;1.20;;
43801;SDS011;29429;51.074;13.764;2023-07-02T01:37:20;1.80;;;1.20;;
43801;SDS011;29429;51.074;13.764;2023-07-02T01:39:48;2.45;;;1.40;;
43801;SDS011;29429;51.074;13.764;2023-07-02T01:42:16;1.30;;;1.02;;
43801;SDS011;29429;51.074;13.764;2023-07-02T01:44:53;1.30;;;1.00;;
43801;SDS011;29429;51.074;13.764;2023-07-02T01:47:21;1.27;;;1.10;;
43801;SDS011;29429;51.074;13.764;2023-07-02T01:49:49;1.92;;;1.10;;
43801;SDS011;29429;51.074;13.764;2023-07-02T01:52:17;1.92;;;1.35;;
43801;SDS011;29429;51.074;13.764;2023-07-02T01:54:44;2.65;;;1.00;;
43801;SDS011;29429;51.074;13.764;2023-07-02T01:57:13;3.60;;;1.30;;
43801;SDS011;29429;51.074;13.764;2023-07-02T01:59:40;1.55;;;1.40;;
43801;SDS011;29429;51.074;13.764;2023-07-02T02:02:08;3.20;;;1.17;;
43801;SDS011;29429;51.074;13.764;2023-07-02T02:04:35;2.33;;;1.10;;
43801;SDS011;29429;51.074;13.764;2023-07-02T02:07:03;1.92;;;1.30;;
43801;SDS011;29429;51.074;13.764;2023-07-02T02:09:31;4.28;;;1.33;;
43801;SDS011;29429;51.074;13.764;2023-07-02T02:11:59;2.60;;;1.25;;
43801;SDS011;29429;51.074;13.764;2023-07-02T02:14:26;2.55;;;1.05;;
43801;SDS011;29429;51.074;13.764;2023-07-02T02:16:54;1.60;;;1.40;;
43801;SDS011;29429;51.074;13.764;2023-07-02T02:19:22;1.40;;;0.90;;
43801;SDS011;29429;51.074;13.764;2023-07-02T02:21:49;1.33;;;1.10;;
43801;SDS011;29429;51.074;13.764;2023-07-02T02:24:17;1.98;;;0.95;;
43801;SDS011;29429;51.074;13.764;2023-07-02T02:26:45;1.88;;;1.08;;
43801;SDS011;29429;51.074;13.764;2023-07-02T02:29:12;1.80;;;1.30;;
43801;SDS011;29429;51.074;13.764;2023-07-02T02:31:40;2.13;;;1.00;;
43801;SDS011;29429;51.074;13.764;2023-07-02T02:34:09;1.75;;;1.40;;
43801;SDS011;29429;51.074;13.764;2023-07-02T02:36:37;1.67;;;1.10;;
43801;SDS011;29429;51.074;13.764;2023-07-02T02:39:04;2.35;;;1.15;;
43801;SDS011;29429;51.074;13.764;2023-07-02T02:41:32;1.17;;;1.00;;
43801;SDS011;29429;51.074;13.764;2023-07-02T02:44:00;2.65;;;1.05;;
43801;SDS011;29429;51.074;13.764;2023-07-02T02:46:27;2.17;;;1.23;;
43801;SDS011;29429;51.074;13.764;2023-07-02T02:48:54;1.60;;;1.10;;
43801;SDS011;29429;51.074;13.764;2023-07-02T02:51:22;2.05;;;1.30;;
43801;SDS011;29429;51.074;13.764;2023-07-02T02:53:49;1.88;;;1.10;;
43801;SDS011;29429;51.074;13.764;2023-07-02T02:56:17;2.00;;;0.90;;
43801;SDS011;29429;51.074;13.764;2023-07-02T02:58:44;1.23;;;0.88;;
43801;SDS011;29429;51.074;13.764;2023-07-02T03:01:12;1.50;;;0.98;;
43801;SDS011;29429;51.074;13.764;2023-07-02T03:03:41;2.72;;;1.20;;
43801;SDS011;29429;51.074;13.764;2023-07-02T03:06:13;1.10;;;1.00;;
43801;SDS011;29429;51.074;13.764;2023-07-02T03:08:41;1.02;;;0.93;;
43801;SDS011;29429;51.074;13.764;2023-07-02T03:11:09;1.00;;;0.88;;
43801;SDS011;29429;51.074;13.764;2023-07-02T03:13:37;1.58;;;1.10;;
43801;SDS011;29429;51.074;13.764;2023-07-02T03:16:04;1.27;;;1.15;;
43801;SDS011;29429;51.074;13.764;2023-07-02T03:18:32;2.03;;;1.42;;
43801;SDS011;29429;51.074;13.764;2023-07-02T03:21:00;1.20;;;1.08;;
43801;SDS011;29429;51.074;13.764;2023-07-02T03:23:28;1.23;;;1.00;;
43801;SDS011;29429;51.074;13.764;2023-07-02T03:25:55;1.13;;;1.00;;
43801;SDS011;29429;51.074;13.764;2023-07-02T03:28:23;2.35;;;1.23;;
43801;SDS011;29429;51.074;13.764;2023-07-02T03:30:50;1.90;;;0.98;;
43801;SDS011;29429;51.074;13.764;2023-07-02T03:33:18;1.60;;;1.00;;
43801;SDS011;29429;51.074;13.764;2023-07-02T03:35:45;2.30;;;1.27;;
43801;SDS011;29429;51.074;13.764;2023-07-02T03:38:13;1.83;;;1.30;;
43801;SDS011;29429;51.074;13.764;2023-07-02T03:40:41;2.15;;;1.20;;
43801;SDS011;29429;51.074;13.764;2023-07-02T03:43:09;2.17;;;1.50;;
43801;SDS011;29429;51.074;13.764;2023-07-02T03:45:37;1.30;;;1.20;;
43801;SDS011;29429;51.074;13.764;2023-07-02T03:48:04;1.30;;;1.17;;
43801;SDS011;29429;51.074;13.764;2023-07-02T03:50:32;2.08;;;1.30;;
43801;SDS011;29429;51.074;13.764;2023-07-02T03:52:59;2.13;;;1.30;;
43801;SDS011;29429;51.074;13.764;2023-07-02T03:55:27;1.33;;;1.00;;
43801;SDS011;29429;51.074;13.764;2023-07-02T03:57:54;1.95;;;1.08;;
43801;SDS011;29429;51.074;13.764;2023-07-02T04:00:22;1.23;;;1.10;;
43801;SDS011;29429;51.074;13.764;2023-07-02T04:02:50;3.00;;;1.20;;
43801;SDS011;29429;51.074;13.764;2023-07-02T04:05:18;2.08;;;1.27;;
43801;SDS011;29429;51.074;13.764;2023-07-02T04:07:46;1.45;;;1.05;;
43801;SDS011;29429;51.074;13.764;2023-07-02T04:10:14;1.30;;;1.20;;
43801;SDS011;29429;51.074;13.764;2023-07-02T04:12:41;3.50;;;1.27;;
43801;SDS011;29429;51.074;13.764;2023-07-02T04:15:09;1.63;;;1.23;;
43801;SDS011;29429;51.074;13.764;2023-07-02T04:17:36;2.70;;;1.45;;
43801;SDS011;29429;51.074;13.764;2023-07-02T04:20:04;2.90;;;1.20;;
43801;SDS011;29429;51.074;13.764;2023-07-02T04:22:33;2.03;;;1.42;;
43801;SDS011;29429;51.074;13.764;2023-07-02T04:25:00;1.95;;;1.60;;
43801;SDS011;29429;51.074;13.764;2023-07-02T04:27:40;1.75;;;1.58;;
43801;SDS011;29429;51.074;13.764;2023-07-02T04:30:16;2.03;;;1.70;;
43801;SDS011;29429;51.074;13.764;2023-07-02T04:32:44;4.88;;;1.77;;
43801;SDS011;29429;51.074;13.764;2023-07-02T04:35:11;2.45;;;1.88;;
43801;SDS011;29429;51.074;13.764;2023-07-02T04:37:39;2.20;;;2.00;;
43801;SDS011;29429;51.074;13.764;2023-07-02T04:40:06;2.33;;;2.13;;
43801;SDS011;29429;51.074;13.764;2023-07-02T04:42:37;3.38;;;2.03;;
43801;SDS011;29429;51.074;13.764;2023-07-02T04:45:06;3.55;;;3.10;;
43801;SDS011;29429;51.074;13.764;2023-07-02T04:47:34;4.60;;;2.60;;
43801;SDS011;29429;51.074;13.764;2023-07-02T04:50:03;3.85;;;2.40;;
43801;SDS011;29429;51.074;13.764;2023-07-02T04:52:32;3.42;;;2.05;;
43801;SDS011;29429;51.074;13.764;2023-07-02T04:54:59;2.90;;;2.20;;
43801;SDS011;29429;51.074;13.764;2023-07-02T04:57:28;3.28;;;2.72;;
43801;SDS011;29429;51.074;13.764;2023-07-02T04:59:55;4.28;;;2.50;;
43801;SDS011;29429;51.074;13.764;2023-07-02T05:02:23;2.88;;;2.42;;
43801;SDS011;29429;51.074;13.764;2023-07-02T05:04:51;5.63;;;2.20;;
43801;SDS011;29429;51.074;13.764;2023-07-02T05:07:18;2.47;;;2.28;;
43801;SDS011;29429;51.074;13.764;2023-07-02T05:09:46;5.88;;;2.67;;
43801;SDS011;29429;51.074;13.764;2023-07-02T05:12:15;4.32;;;2.70;;
43801;SDS011;29429;51.074;13.764;2023-07-02T05:14:42;6.18;;;2.80;;
43801;SDS011;29429;51.074;13.764;2023-07-02T05:17:09;4.65;;;2.55;;
43801;SDS011;29429;51.074;13.764;2023-07-02T05:19:37;6.47;;;2.70;;
43801;SDS011;29429;51.074;13.764;2023-07-02T05:22:08;3.67;;;2.03;;
43801;SDS011;29429;51.074;13.764;2023-07-02T05:24:35;6.93;;;2.50;;
43801;SDS011;29429;51.074;13.764;2023-07-02T05:27:03;6.30;;;2.72;;
43801;SDS011;29429;51.074;13.764;2023-07-02T05:29:31;2.40;;;2.20;;
43801;SDS011;29429;51.074;13.764;2023-07-02T05:31:58;2.30;;;2.10;;
43801;SDS011;29429;51.074;13.764;2023-07-02T05:34:26;2.40;;;2.20;;
43801;SDS011;29429;51.074;13.764;2023-07-02T05:36:53;2.63;;;1.80;;
43801;SDS011;29429;51.074;13.764;2023-07-02T05:39:20;2.95;;;2.15;;
43801;SDS011;29429;51.074;13.764;2023-07-02T05:41:48;2.50;;;1.90;;
43801;SDS011;29429;51.074;13.764;2023-07-02T05:44:16;2.95;;;1.88;;
43801;SDS011;29429;51.074;13.764;2023-07-02T05:46:43;2.65;;;1.80;;
43801;SDS011;29429;51.074;13.764;2023-07-02T05:49:11;3.25;;;1.75;;
43801;SDS011;29429;51.074;13.764;2023-07-02T05:51:38;3.92;;;2.10;;
43801;SDS011;29429;51.074;13.764;2023-07-02T05:54:06;2.90;;;1.58;;
43801;SDS011;29429;51.074;13.764;2023-07-02T05:56:33;2.97;;;1.80;;
43801;SDS011;29429;51.074;13.764;2023-07-02T05:59:01;3.33;;;1.80;;
43801;SDS011;29429;51.074;13.764;2023-07-02T06:01:28;2.92;;;1.75;;
43801;SDS011;29429;51.074;13.764;2023-07-02T06:03:55;3.17;;;1.50;;
43801;SDS011;29429;51.074;13.764;2023-07-02T06:06:23;4.28;;;1.75;;
43801;SDS011;29429;51.074;13.764;2023-07-02T06:08:51;4.78;;;1.90;;
43801;SDS011;29429;51.074;13.764;2023-07-02T06:11:18;3.15;;;1.75;;
43801;SDS011;29429;51.074;13.764;2023-07-02T06:13:46;2.10;;;1.90;;
43801;SDS011;29429;51.074;13.764;2023-07-02T06:16:13;3.25;;;1.48;;
43801;SDS011;29429;51.074;13.764;2023-07-02T06:18:43;1.50;;;1.40;;
43801;SDS011;29429;51.074;13.764;2023-07-02T06:21:11;4.00;;;1.70;;
43801;SDS011;29429;51.074;13.764;2023-07-02T06:23:39;2.60;;;1.70;;
43801;SDS011;29429;51.074;13.764;2023-07-02T06:26:10;1.73;;;1.63;;
43801;SDS011;29429;51.074;13.764;2023-07-02T06:28:38;2.38;;;1.60;;
43801;SDS011;29429;51.074;13.764;2023-07-02T06:31:05;3.28;;;1.50;;
43801;SDS011;29429;51.074;13.764;2023-07-02T06:33:33;1.75;;;1.55;;
43801;SDS011;29429;51.074;13.764;2023-07-02T06:36:04;1.75;;;1.63;;
43801;SDS011;29429;51.074;13.764;2023-07-02T06:38:32;1.40;;;1.25;;
43801;SDS011;29429;51.074;13.764;2023-07-02T06:40:59;1.50;;;1.20;;
43801;SDS011;29429;51.074;13.764;2023-07-02T06:43:27;4.03;;;1.70;;
43801;SDS011;29429;51.074;13.764;2023-07-02T06:45:54;2.88;;;1.80;;
43801;SDS011;29429;51.074;13.764;2023-07-02T06:48:21;2.17;;;1.85;;
43801;SDS011;29429;51.074;13.764;2023-07-02T06:50:49;2.60;;;1.70;;
43801;SDS011;29429;51.074;13.764;2023-07-02T06:53:17;2.08;;;1.90;;
43801;SDS011;29429;51.074;13.764;2023-07-02T06:55:44;2.45;;;1.50;;
43801;SDS011;29429;51.074;13.764;2023-07-02T06:58:12;1.85;;;1.70;;
43801;SDS011;29429;51.074;13.764;2023-07-02T07:00:39;2.10;;;1.63;;
43801;SDS011;29429;51.074;13.764;2023-07-02T07:03:06;4.35;;;2.13;;
43801;SDS011;29429;51.074;13.764;2023-07-02T07:05:34;2.25;;;2.00;;
43801;SDS011;29429;51.074;13.764;2023-07-02T07:08:01;3.72;;;1.85;;
43801;SDS011;29429;51.074;13.764;2023-07-02T07:10:28;1.98;;;1.80;;
43801;SDS011;29429;51.074;13.764;2023-07-02T07:13:01;2.55;;;1.73;;
43801;SDS011;29429;51.074;13.764;2023-07-02T07:15:32;2.65;;;1.77;;
43801;SDS011;29429;51.074;13.764;2023-07-02T07:18:01;1.92;;;1.63;;
43801;SDS011;29429;51.074;13.764;2023-07-02T07:20:30;2.67;;;1.70;;
43801;SDS011;29429;51.074;13.764;2023-07-02T07:22:57;3.17;;;1.77;;
43801;SDS011;29429;51.074;13.764;2023-07-02T07:25:25;3.58;;;1.90;;
43801;SDS011;29429;51.074;13.764;2023-07-02T07:27:52;1.90;;;1.67;;
43801;SDS011;29429;51.074;13.764;2023-07-02T07:30:20;3.05;;;1.90;;
43801;SDS011;29429;51.074;13.764;2023-07-02T07:32:49;3.33;;;1.70;;
43801;SDS011;29429;51.074;13.764;2023-07-02T07:35:18;2.75;;;2.00;;
43801;SDS011;29429;51.074;13.764;2023-07-02T07:37:48;2.25;;;1.95;;
43801;SDS011;29429;51.074;13.764;2023-07-02T07:40:16;4.05;;;3.03;;
43801;SDS011;29429;51.074;13.764;2023-07-02T07:42:43;3.42;;;2.30;;
43801;SDS011;29429;51.074;13.764;2023-07-02T07:45:11;3.65;;;2.17;;
43801;SDS011;29429;51.074;13.764;2023-07-02T07:47:39;3.05;;;2.30;;
43801;SDS011;29429;51.074;13.764;2023-07-02T07:50:06;2.55;;;2.35;;
43801;SDS011;29429;51.074;13.764;2023-07-02T07:52:38;2.45;;;2.05;;
43801;SDS011;29429;51.074;13.764;2023-07-02T07:55:06;2.80;;;1.90;;
43801;SDS011;29429;51.074;13.764;2023-07-02T07:57:35;3.78;;;2.17;;
43801;SDS011;29429;51.074;13.764;2023-07-02T08:00:03;3.30;;;2.42;;
43801;SDS011;29429;51.074;13.764;2023-07-02T08:02:43;3.53;;;2.08;;
43801;SDS011;29429;51.074;13.764;2023-07-02T08:05:13;2.13;;;1.92;;
43801;SDS011;29429;51.074;13.764;2023-07-02T08:07:41;2.55;;;2.03;;
43801;SDS011;29429;51.074;13.764;2023-07-02T08:10:08;2.60;;;1.90;;
43801;SDS011;29429;51.074;13.764;2023-07-02T08:12:36;3.45;;;1.83;;
43801;SDS011;29429;51.074;13.764;2023-07-02T08:15:04;2.50;;;2.00;;
43801;SDS011;29429;51.074;13.764;2023-07-02T08:17:32;3.47;;;1.95;;
43801;SDS011;29429;51.074;13.764;2023-07-02T08:19:59;1.80;;;1.70;;
43801;SDS011;29429;51.074;13.764;2023-07-02T08:22:27;2.90;;;1.83;;
43801;SDS011;29429;51.074;13.764;2023-07-02T08:24:54;3.28;;;1.80;;
43801;SDS011;29429;51.074;13.764;2023-07-02T08:27:21;5.20;;;1.73;;
43801;SDS011;29429;51.074;13.764;2023-07-02T08:29:49;3.10;;;1.98;;
43801;SDS011;29429;51.074;13.764;2023-07-02T08:32:17;2.20;;;1.60;;
43801;SDS011;29429;51.074;13.764;2023-07-02T08:34:44;2.15;;;1.52;;
43801;SDS011;29429;51.074;13.764;2023-07-02T08:37:11;3.00;;;2.08;;
43801;SDS011;29429;51.074;13.764;2023-07-02T08:39:39;3.30;;;1.70;;
43801;SDS011;29429;51.074;13.764;2023-07-02T08:42:07;2.35;;;1.70;;
43801;SDS011;29429;51.074;13.764;2023-07-02T08:44:34;4.25;;;1.50;;
43801;SDS011;29429;51.074;13.764;2023-07-02T08:47:02;2.40;;;1.50;;
43801;SDS011;29429;51.074;13.764;2023-07-02T08:49:30;2.42;;;1.67;;
43801;SDS011;29429;51.074;13.764;2023-07-02T08:51:57;2.28;;;1.70;;
43801;SDS011;29429;51.074;13.764;2023-07-02T08:54:25;1.95;;;1.63;;
43801;SDS011;29429;51.074;13.764;2023-07-02T08:56:52;3.38;;;1.92;;
43801;SDS011;29429;51.074;13.764;2023-07-02T08:59:20;2.63;;;1.58;;
43801;SDS011;29429;51.074;13.764;2023-07-02T09:01:51;2.25;;;1.70;;
43801;SDS011;29429;51.074;13.764;2023-07-02T09:04:22;4.20;;;1.50;;
43801;SDS011;29429;51.074;13.764;2023-07-02T09:07:02;2.10;;;1.60;;
43801;SDS011;29429;51.074;13.764;2023-07-02T09:09:30;2.10;;;1.63;;
43801;SDS011;29429;51.074;13.764;2023-07-02T09:11:57;1.92;;;1.48;;
43801;SDS011;29429;51.074;13.764;2023-07-02T09:14:29;2.83;;;1.40;;
43801;SDS011;29429;51.074;13.764;2023-07-02T09:17:04;3.95;;;1.50;;
43801;SDS011;29429;51.074;13.764;2023-07-02T09:19:33;4.13;;;1.42;;
43801;SDS011;29429;51.074;13.764;2023-07-02T09:22:02;1.60;;;1.50;;
43801;SDS011;29429;51.074;13.764;2023-07-02T09:24:30;2.75;;;1.45;;
43801;SDS011;29429;51.074;13.764;2023-07-02T09:27:00;1.75;;;1.48;;
43801;SDS011;29429;51.074;13.764;2023-07-02T09:29:28;2.17;;;1.35;;
43801;SDS011;29429;51.074;13.764;2023-07-02T09:32:01;3.70;;;1.60;;
43801;SDS011;29429;51.074;13.764;2023-07-02T09:34:36;1.60;;;1.48;;
43801;SDS011;29429;51.074;13.764;2023-07-02T09:37:06;1.90;;;1.20;;
43801;SDS011;29429;51.074;13.764;2023-07-02T09:39:34;2.20;;;1.50;;
43801;SDS011;29429;51.074;13.764;2023-07-02T09:42:05;2.90;;;1.25;;
43801;SDS011;29429;51.074;13.764;2023-07-02T09:44:34;1.77;;;1.50;;
43801;SDS011;29429;51.074;13.764;2023-07-02T09:47:03;1.42;;;1.30;;
43801;SDS011;29429;51.074;13.764;2023-07-02T09:49:36;2.42;;;1.75;;
43801;SDS011;29429;51.074;13.764;2023-07-02T09:52:05;2.53;;;1.38;;
43801;SDS011;29429;51.074;13.764;2023-07-02T09:54:34;2.13;;;1.30;;
43801;SDS011;29429;51.074;13.764;2023-07-02T09:57:02;3.10;;;1.33;;
43801;SDS011;29429;51.074;13.764;2023-07-02T09:59:30;1.73;;;1.40;;
43801;SDS011;29429;51.074;13.764;2023-07-02T10:01:58;2.60;;;1.30;;
43801;SDS011;29429;51.074;13.764;2023-07-02T10:04:25;4.00;;;1.50;;
43801;SDS011;29429;51.074;13.764;2023-07-02T10:06:55;1.60;;;1.17;;
43801;SDS011;29429;51.074;13.764;2023-07-02T10:09:37;2.20;;;1.40;;
43801;SDS011;29429;51.074;13.764;2023-07-02T10:12:24;1.90;;;1.30;;
43801;SDS011;29429;51.074;13.764;2023-07-02T10:14:53;3.00;;;1.23;;
43801;SDS011;29429;51.074;13.764;2023-07-02T10:20:03;2.33;;;1.00;;
43801;SDS011;29429;51.074;13.764;2023-07-02T10:22:48;1.52;;;1.00;;
43801;SDS011;29429;51.074;13.764;2023-07-02T10:25:23;4.72;;;1.63;;
43801;SDS011;29429;51.074;13.764;2023-07-02T10:27:53;2.35;;;1.35;;
43801;SDS011;29429;51.074;13.764;2023-07-02T10:30:30;1.92;;;1.33;;
43801;SDS011;29429;51.074;13.764;2023-07-02T10:33:14;2.10;;;1.55;;
43801;SDS011;29429;51.074;13.764;2023-07-02T10:35:43;4.32;;;1.60;;
43801;SDS011;29429;51.074;13.764;2023-07-02T10:38:14;2.13;;;1.50;;
43801;SDS011;29429;51.074;13.764;2023-07-02T10:40:45;2.28;;;1.30;;
43801;SDS011;29429;51.074;13.764;2023-07-02T10:43:13;1.83;;;1.30;;
43801;SDS011;29429;51.074;13.764;2023-07-02T10:45:40;2.67;;;1.40;;
43801;SDS011;29429;51.074;13.764;2023-07-02T10:48:08;1.95;;;1.05;;
43801;SDS011;29429;51.074;13.764;2023-07-02T10:50:39;1.60;;;1.30;;
43801;SDS011;29429;51.074;13.764;2023-07-02T10:53:14;4.32;;;1.50;;
43801;SDS011;29429;51.074;13.764;2023-07-02T10:55:43;1.38;;;1.17;;
43801;SDS011;29429;51.074;13.764;2023-07-02T10:58:11;1.95;;;1.15;;
43801;SDS011;29429;51.074;13.764;2023-07-02T11:00:48;2.35;;;1.30;;
43801;SDS011;29429;51.074;13.764;2023-07-02T11:03:17;2.15;;;1.30;;
43801;SDS011;29429;51.074;13.764;2023-07-02T11:05:46;1.45;;;1.20;;
43801;SDS011;29429;51.074;13.764;2023-07-02T11:08:15;1.85;;;1.23;;
43801;SDS011;29429;51.074;13.764;2023-07-02T11:10:43;1.30;;;1.20;;
43801;SDS011;29429;51.074;13.764;2023-07-02T11:13:17;1.50;;;1.20;;
43801;SDS011;29429;51.074;13.764;2023-07-02T11:15:53;2.08;;;1.30;;
43801;SDS011;29429;51.074;13.764;2023-07-02T11:18:24;1.92;;;0.95;;
43801;SDS011;29429;51.074;13.764;2023-07-02T11:21:09;1.58;;;1.10;;
43801;SDS011;29429;51.074;13.764;2023-07-02T11:24:30;2.20;;;1.10;;
43801;SDS011;29429;51.074;13.764;2023-07-02T11:27:37;2.45;;;1.38;;
43801;SDS011;29429;51.074;13.764;2023-07-02T11:30:13;3.33;;;1.38;;
43801;SDS011;29429;51.074;13.764;2023-07-02T11:35:34;2.47;;;1.30;;
43801;SDS011;29429;51.074;13.764;2023-07-02T11:38:02;1.10;;;0.93;;
43801;SDS011;29429;51.074;13.764;2023-07-02T11:40:49;1.13;;;1.00;;
43801;SDS011;29429;51.074;13.764;2023-07-02T11:46:13;6.28;;;1.52;;
43801;SDS011;29429;51.074;13.764;2023-07-02T11:48:41;3.90;;;1.33;;
43801;SDS011;29429;51.074;13.764;2023-07-02T11:51:09;1.35;;;1.25;;
43801;SDS011;29429;51.074;13.764;2023-07-02T11:53:39;1.42;;;1.20;;
43801;SDS011;29429;51.074;13.764;2023-07-02T11:56:06;3.65;;;1.48;;
43801;SDS011;29429;51.074;13.764;2023-07-02T11:58:34;2.40;;;1.25;;
43801;SDS011;29429;51.074;13.764;2023-07-02T12:01:10;3.17;;;1.30;;
43801;SDS011;29429;51.074;13.764;2023-07-02T12:03:41;1.35;;;1.10;;
43801;SDS011;29429;51.074;13.764;2023-07-02T12:06:08;4.60;;;1.40;;
43801;SDS011;29429;51.074;13.764;2023-07-02T12:08:36;3.15;;;1.20;;
43801;SDS011;29429;51.074;13.764;2023-07-02T12:11:04;2.78;;;1.45;;
43801;SDS011;29429;51.074;13.764;2023-07-02T12:13:31;2.00;;;1.40;;
43801;SDS011;29429;51.074;13.764;2023-07-02T12:16:00;2.97;;;1.55;;
43801;SDS011;29429;51.074;13.764;2023-07-02T12:18:27;5.35;;;1.50;;
43801;SDS011;29429;51.074;13.764;2023-07-02T12:20:55;3.17;;;2.13;;
43801;SDS011;29429;51.074;13.764;2023-07-02T12:23:22;2.20;;;1.58;;
43801;SDS011;29429;51.074;13.764;2023-07-02T12:25:49;2.13;;;1.45;;
43801;SDS011;29429;51.074;13.764;2023-07-02T12:28:17;2.08;;;1.85;;
43801;SDS011;29429;51.074;13.764;2023-07-02T12:30:45;3.55;;;1.95;;
43801;SDS011;29429;51.074;13.764;2023-07-02T12:33:12;4.93;;;1.70;;
43801;SDS011;29429;51.074;13.764;2023-07-02T12:35:40;6.00;;;1.88;;
43801;SDS011;29429;51.074;13.764;2023-07-02T12:38:07;2.47;;;1.85;;
43801;SDS011;29429;51.074;13.764;2023-07-02T12:40:35;2.25;;;1.90;;
43801;SDS011;29429;51.074;13.764;2023-07-02T12:43:02;2.30;;;1.67;;
43801;SDS011;29429;51.074;13.764;2023-07-02T12:45:29;1.88;;;1.50;;
43801;SDS011;29429;51.074;13.764;2023-07-02T12:48:02;2.80;;;1.70;;
43801;SDS011;29429;51.074;13.764;2023-07-02T12:50:30;2.67;;;1.70;;
43801;SDS011;29429;51.074;13.764;2023-07-02T12:52:59;3.45;;;1.80;;
43801;SDS011;29429;51.074;13.764;2023-07-02T12:55:27;3.30;;;1.90;;
43801;SDS011;29429;51.074;13.764;2023-07-02T12:57:54;3.92;;;2.33;;
43801;SDS011;29429;51.074;13.764;2023-07-02T13:00:23;5.00;;;1.70;;
43801;SDS011;29429;51.074;13.764;2023-07-02T13:02:56;2.42;;;2.10;;
43801;SDS011;29429;51.074;13.764;2023-07-02T13:05:31;2.35;;;1.70;;
43801;SDS011;29429;51.074;13.764;2023-07-02T13:07:58;3.55;;;1.58;;
43801;SDS011;29429;51.074;13.764;2023-07-02T13:10:26;3.75;;;1.67;;
43801;SDS011;29429;51.074;13.764;2023-07-02T13:12:56;5.95;;;2.15;;
43801;SDS011;29429;51.074;13.764;2023-07-02T13:15:47;8.90;;;2.50;;
43801;SDS011;29429;51.074;13.764;2023-07-02T13:21:37;6.05;;;2.35;;
43801;SDS011;29429;51.074;13.764;2023-07-02T13:24:08;5.40;;;2.40;;
43801;SDS011;29429;51.074;13.764;2023-07-02T13:26:37;5.32;;;2.30;;
43801;SDS011;29429;51.074;13.764;2023-07-02T13:29:05;6.25;;;2.33;;
43801;SDS011;29429;51.074;13.764;2023-07-02T13:31:42;2.90;;;2.30;;
43801;SDS011;29429;51.074;13.764;2023-07-02T13:34:16;4.97;;;2.47;;
43801;SDS011;29429;51.074;13.764;2023-07-02T13:36:44;3.70;;;2.40;;
43801;SDS011;29429;51.074;13.764;2023-07-02T13:39:14;5.38;;;2.58;;
43801;SDS011;29429;51.074;13.764;2023-07-02T13:42:03;5.50;;;2.80;;
43801;SDS011;29429;51.074;13.764;2023-07-02T13:44:31;5.18;;;2.58;;
43801;SDS011;29429;51.074;13.764;2023-07-02T13:46:59;5.10;;;2.30;;
43801;SDS011;29429;51.074;13.764;2023-07-02T13:49:30;3.58;;;2.17;;
43801;SDS011;29429;51.074;13.764;2023-07-02T13:51:58;7.93;;;2.60;;
43801;SDS011;29429;51.074;13.764;2023-07-02T13:54:26;3.60;;;2.17;;
43801;SDS011;29429;51.074;13.764;2023-07-02T13:56:55;5.60;;;2.58;;
43801;SDS011;29429;51.074;13.764;2023-07-02T13:59:22;5.15;;;2.63;;
43801;SDS011;29429;51.074;13.764;2023-07-02T14:01:50;3.88;;;2.50;;
43801;SDS011;29429;51.074;13.764;2023-07-02T14:04:20;6.22;;;2.72;;
43801;SDS011;29429;51.074;13.764;2023-07-02T14:06:48;3.75;;;2.60;;
43801;SDS011;29429;51.074;13.764;2023-07-02T14:09:28;3.30;;;2.10;;
43801;SDS011;29429;51.074;13.764;2023-07-02T14:11:59;3.72;;;2.10;;
43801;SDS011;29429;51.074;13.764;2023-07-02T14:14:27;5.13;;;2.50;;
43801;SDS011;29429;51.074;13.764;2023-07-02T14:16:54;3.90;;;2.28;;
43801;SDS011;29429;51.074;13.764;2023-07-02T14:19:21;3.17;;;2.60;;
43801;SDS011;29429;51.074;13.764;2023-07-02T14:21:49;4.80;;;2.30;;
43801;SDS011;29429;51.074;13.764;2023-07-02T14:24:16;3.08;;;2.00;;
43801;SDS011;29429;51.074;13.764;2023-07-02T14:26:44;6.60;;;2.55;;
43801;SDS011;29429;51.074;13.764;2023-07-02T14:29:11;2.88;;;1.90;;
43801;SDS011;29429;51.074;13.764;2023-07-02T14:31:39;6.15;;;2.40;;
43801;SDS011;29429;51.074;13.764;2023-07-02T14:34:06;5.03;;;2.53;;
43801;SDS011;29429;51.074;13.764;2023-07-02T14:36:34;5.65;;;2.47;;
43801;SDS011;29429;51.074;13.764;2023-07-02T14:39:01;6.28;;;2.70;;
43801;SDS011;29429;51.074;13.764;2023-07-02T14:41:28;5.97;;;2.92;;
43801;SDS011;29429;51.074;13.764;2023-07-02T14:44:02;6.43;;;3.03;;
43801;SDS011;29429;51.074;13.764;2023-07-02T14:46:31;5.32;;;3.22;;
43801;SDS011;29429;51.074;13.764;2023-07-02T14:48:59;5.40;;;3.30;;
43801;SDS011;29429;51.074;13.764;2023-07-02T14:51:26;5.60;;;3.55;;
43801;SDS011;29429;51.074;13.764;2023-07-02T14:53:54;4.97;;;3.17;;
43801;SDS011;29429;51.074;13.764;2023-07-02T14:56:22;7.13;;;3.70;;
43801;SDS011;29429;51.074;13.764;2023-07-02T14:58:50;3.90;;;2.65;;